Time;durP1;ratioP1;P1;durP2;ratioP2;P2;SDS_P1;SDS_P2;PMS_P1;PMS_P2;Temp;Humidity;BMP_temperature;BMP_pressure;BME280_temperature;BME280_humidity;BME280_pressure;Samples;Min_cycle;Max_cycle;Signal;HPM_P1;HPM_P2
2022/01/06 00:00:23;;;;;;;8.38;2.22;;;;;;;-141.50;100.00;63355.56;5091144;28;20071;-77
2022/01/06 00:02:49;;;;;;;5.18;2.22;;;;;;;-141.50;100.00;63355.56;5092127;28;20615;-79
2022/01/06 00:05:16;;;;;;;7.47;2.35;;;;;;;-141.50;100.00;63355.56;5093390;28;20044;-79
2022/01/06 00:07:43;;;;;;;6.57;2.60;;;;;;;-141.50;100.00;63355.56;5091167;28;20073;-78
2022/01/06 00:10:12;;;;;;;7.40;2.05;;;;;;;-141.50;100.00;63355.56;5091172;28;20071;-79
2022/01/06 00:12:49;;;;;;;8.13;2.45;;;;;;;-141.50;100.00;63355.56;5091618;28;20101;-78
2022/01/06 00:18:28;;;;;;;8.65;2.40;;;;;;;-141.50;100.00;63355.56;5082541;28;20457;-76
2022/01/06 00:23:42;;;;;;;6.72;2.55;;;;;;;-141.50;100.00;63355.56;5092178;28;20043;-78
2022/01/06 00:26:09;;;;;;;8.68;2.30;;;;;;;-141.50;100.00;63355.56;5091909;28;20078;-79
2022/01/06 00:28:37;;;;;;;17.48;3.17;;;;;;;-141.50;100.00;63355.56;5091341;28;20053;-79
2022/01/06 00:31:04;;;;;;;12.63;2.60;;;;;;;-141.50;100.00;63355.56;5091512;28;20048;-78
2022/01/06 00:33:32;;;;;;;6.95;2.20;;;;;;;-141.50;100.00;63355.56;5091020;28;20067;-79
2022/01/06 00:35:59;;;;;;;8.15;2.63;;;;;;;-141.50;100.00;63355.56;5090920;28;20048;-79
2022/01/06 00:38:26;;;;;;;7.25;2.13;;;;;;;-141.50;100.00;63355.56;5092165;28;20044;-78
2022/01/06 00:40:53;;;;;;;5.72;2.22;;;;;;;-141.50;100.00;63355.56;5091173;28;20409;-78
2022/01/06 00:43:20;;;;;;;6.07;1.98;;;;;;;-141.50;100.00;63355.56;5090070;28;20098;-76
2022/01/06 00:45:47;;;;;;;11.80;2.42;;;;;;;-141.50;100.00;63355.56;5090957;28;20120;-77
2022/01/06 00:48:14;;;;;;;9.27;2.28;;;;;;;-141.50;100.00;63355.56;5090345;28;20044;-78
2022/01/06 00:50:42;;;;;;;8.68;2.35;;;;;;;-141.50;100.00;63355.56;5091606;28;20052;-78
2022/01/06 00:53:09;;;;;;;9.45;2.20;;;;;;;-141.50;100.00;63355.56;5090874;28;20094;-77
2022/01/06 00:55:38;;;;;;;8.30;2.35;;;;;;;-141.50;100.00;63355.56;5092068;28;20074;-78
2022/01/06 00:58:05;;;;;;;7.32;2.15;;;;;;;-141.50;100.00;63355.56;5091373;28;20044;-78
2022/01/06 01:00:42;;;;;;;12.70;2.30;;;;;;;-141.50;100.00;63355.56;5090248;28;20083;-78
2022/01/06 01:03:17;;;;;;;11.13;2.22;;;;;;;-141.50;100.00;63355.56;5089579;28;20044;-77
2022/01/06 01:05:48;;;;;;;;;;;;;;;-141.50;100.00;63355.56;5091939;28;20052;-78
2022/01/06 01:08:16;;;;;;;11.73;2.53;;;;;;;-141.50;100.00;63355.56;5091313;28;19920;-77
2022/01/06 01:10:47;;;;;;;11.68;2.47;;;;;;;-141.50;100.00;63355.56;5091764;28;20078;-79
2022/01/06 01:13:15;;;;;;;11.02;1.88;;;;;;;-141.50;100.00;63355.56;5091497;28;20525;-79
2022/01/06 01:15:51;;;;;;;17.35;2.58;;;;;;;-141.50;100.00;63355.56;5091911;28;20125;-79
2022/01/06 01:18:19;;;;;;;9.52;2.28;;;;;;;-141.50;100.00;63355.56;5089749;28;20142;-79
2022/01/06 01:20:51;;;;;;;9.38;2.33;;;;;;;-141.50;100.00;63355.56;5091094;28;20074;-78
2022/01/06 01:23:20;;;;;;;13.23;2.42;;;;;;;-141.50;100.00;63355.56;5090839;28;20048;-79
2022/01/06 01:25:47;;;;;;;17.40;2.70;;;;;;;-141.50;100.00;63355.56;5090443;28;20070;-78
2022/01/06 01:28:15;;;;;;;13.32;2.40;;;;;;;-141.50;100.00;63355.56;5090878;28;20086;-78
2022/01/06 01:33:29;;;;;;;9.73;2.47;;;;;;;-141.50;100.00;63355.56;5088477;28;20138;-77
2022/01/06 01:35:56;;;;;;;14.70;2.60;;;;;;;-141.50;100.00;63355.56;5089386;28;20577;-77
2022/01/06 01:38:23;;;;;;;14.57;2.55;;;;;;;-141.50;100.00;63355.56;5088741;28;20044;-77
2022/01/06 01:40:49;;;;;;;11.82;2.63;;;;;;;-141.50;100.00;63355.56;5089353;28;20112;-78
2022/01/06 01:43:16;;;;;;;12.27;2.20;;;;;;;-141.50;100.00;63355.56;5090213;28;20072;-78
2022/01/06 01:45:46;;;;;;;13.43;1.73;;;;;;;-141.50;100.00;63355.56;5088727;28;20048;-78
2022/01/06 01:48:22;;;;;;;11.95;2.10;;;;;;;-141.50;100.00;63355.56;5087441;28;20346;-78
2022/01/06 01:50:48;;;;;;;;;;;;;;;-141.50;100.00;63355.56;5090380;28;20079;-78
2022/01/06 01:53:15;;;;;;;16.10;1.90;;;;;;;-141.50;100.00;63355.56;5088481;28;19920;-78
2022/01/06 01:55:41;;;;;;;16.20;2.03;;;;;;;-141.50;100.00;63355.56;5090716;28;20052;-78
2022/01/06 01:58:08;;;;;;;14.52;1.63;;;;;;;-141.50;100.00;63355.56;5090691;28;20533;-76
2022/01/06 02:00:35;;;;;;;18.13;1.70;;;;;;;-141.50;100.00;63355.56;5090142;28;20455;-77
2022/01/06 02:03:01;;;;;;;20.55;2.13;;;;;;;-141.50;100.00;63355.56;5088217;28;20051;-78
2022/01/06 02:05:29;;;;;;;12.38;1.75;;;;;;;-141.50;100.00;63355.56;5090314;28;20484;-78
2022/01/06 02:08:00;;;;;;;14.57;1.40;;;;;;;-141.50;100.00;63355.56;5090362;28;20056;-79
2022/01/06 02:10:28;;;;;;;11.55;1.73;;;;;;;-141.50;100.00;63355.56;5086524;28;20051;-78
2022/01/06 02:12:56;;;;;;;12.57;1.60;;;;;;;-141.50;100.00;63355.56;5090055;28;20052;-78
2022/01/06 02:15:23;;;;;;;14.32;2.10;;;;;;;-141.50;100.00;63355.56;5089649;28;20549;-78
2022/01/06 02:17:50;;;;;;;12.15;1.88;;;;;;;-141.50;100.00;63355.56;5087782;28;20052;-79
2022/01/06 02:20:19;;;;;;;11.23;1.30;;;;;;;-141.50;100.00;63355.56;5089282;28;20079;-77
2022/01/06 02:22:47;;;;;;;11.25;1.73;;;;;;;-141.50;100.00;63355.56;5090218;28;20044;-79
2022/01/06 02:25:19;;;;;;;16.58;2.92;;;;;;;-141.50;100.00;63355.56;5090281;28;20079;-78
2022/01/06 02:27:51;;;;;;;15.95;1.88;;;;;;;-141.50;100.00;63355.56;5090029;28;20105;-78
2022/01/06 02:30:19;;;;;;;8.60;1.20;;;;;;;-141.50;100.00;63355.56;5097052;28;20134;-76
2022/01/06 02:32:46;;;;;;;15.88;2.85;;;;;;;-141.50;100.00;63355.56;5107087;28;20086;-79
2022/01/06 02:35:17;;;;;;;11.15;1.40;;;;;;;-141.50;100.00;63355.56;5104373;28;20048;-77
2022/01/06 02:37:43;;;;;;;10.27;1.40;;;;;;;-141.50;100.00;63355.56;5094743;28;20073;-78
2022/01/06 02:40:16;;;;;;;9.95;1.30;;;;;;;-141.50;100.00;63355.56;5092612;28;20044;-79
2022/01/06 02:42:49;;;;;;;14.35;1.63;;;;;;;-141.50;100.00;63355.56;5093131;28;20083;-78
2022/01/06 02:45:17;;;;;;;7.97;1.42;;;;;;;-141.50;100.00;63355.56;5093605;28;20048;-78
2022/01/06 02:47:46;;;;;;;14.85;1.95;;;;;;;-141.50;100.00;63355.56;5091541;28;20052;-80
2022/01/06 02:50:14;;;;;;;11.07;1.88;;;;;;;-141.50;100.00;63355.56;5092132;28;20051;-77
2022/01/06 02:52:41;;;;;;;14.10;1.80;;;;;;;-141.50;100.00;63355.56;5093051;28;20439;-78
2022/01/06 02:55:12;;;;;;;17.08;2.10;;;;;;;-141.50;100.00;63355.56;5095413;28;20056;-78
2022/01/06 02:57:39;;;;;;;13.18;2.15;;;;;;;-141.50;100.00;63355.56;5093137;28;20472;-78
2022/01/06 03:00:09;;;;;;;17.30;1.88;;;;;;;-141.50;100.00;63355.56;5092332;28;20081;-78
2022/01/06 03:02:41;;;;;;;10.15;1.27;;;;;;;-141.50;100.00;63355.56;5092994;28;20051;-78
2022/01/06 03:05:08;;;;;;;15.55;1.85;;;;;;;-141.50;100.00;63355.56;5093442;28;20036;-79
2022/01/06 03:07:34;;;;;;;15.05;1.70;;;;;;;-141.50;100.00;63355.56;5093191;28;20052;-78
2022/01/06 03:10:03;;;;;;;14.95;2.42;;;;;;;-141.50;100.00;63355.56;5093564;28;20059;-79
2022/01/06 03:12:39;;;;;;;13.50;2.08;;;;;;;-141.50;100.00;63355.56;5093552;28;20076;-78
2022/01/06 03:15:09;;;;;;;17.70;2.30;;;;;;;-141.50;100.00;63355.56;5093695;28;20079;-78
2022/01/06 03:17:41;;;;;;;23.75;2.42;;;;;;;-141.50;100.00;63355.56;5090560;28;20059;-78
2022/01/06 03:20:12;;;;;;;13.63;1.85;;;;;;;-141.50;100.00;63355.56;5074335;28;20067;-78
2022/01/06 03:22:39;;;;;;;12.27;2.13;;;;;;;-141.50;100.00;63355.56;5093525;28;20718;-78
2022/01/06 03:25:07;;;;;;;16.17;2.53;;;;;;;-141.50;100.00;63355.56;5093562;28;20074;-78
2022/01/06 03:27:34;;;;;;;11.90;1.90;;;;;;;-141.50;100.00;63355.56;5092951;28;20052;-78
2022/01/06 03:30:04;;;;;;;18.20;2.40;;;;;;;-141.50;100.00;63355.56;5094604;28;20052;-79
2022/01/06 03:32:30;;;;;;;21.02;2.28;;;;;;;-141.50;100.00;63355.56;5101643;28;20059;-77
2022/01/06 03:34:57;;;;;;;23.02;2.28;;;;;;;-141.50;100.00;63355.56;5099243;28;20115;-78
2022/01/06 03:37:23;;;;;;;18.83;2.10;;;;;;;-141.50;100.00;63355.56;5092272;28;20112;-77
2022/01/06 03:39:50;;;;;;;16.80;2.47;;;;;;;-141.50;100.00;63355.56;5076555;28;20052;-77
2022/01/06 03:42:16;;;;;;;20.58;2.80;;;;;;;-141.50;100.00;63355.56;5071720;28;20102;-78
2022/01/06 03:44:43;;;;;;;18.45;2.70;;;;;;;-141.50;100.00;63355.56;5070653;28;20182;-78
2022/01/06 03:47:09;;;;;;;18.45;2.50;;;;;;;-141.50;100.00;63355.56;5071679;28;20059;-79
2022/01/06 03:49:36;;;;;;;15.88;2.10;;;;;;;-141.50;100.00;63355.56;5072167;28;20052;-77
2022/01/06 03:52:03;;;;;;;25.23;2.90;;;;;;;-141.50;100.00;63355.56;5068612;28;20052;-77
2022/01/06 03:54:30;;;;;;;13.60;1.73;;;;;;;-141.50;100.00;63355.56;5071526;28;20079;-77
2022/01/06 03:56:58;;;;;;;13.80;1.90;;;;;;;-141.50;100.00;63355.56;5071403;28;20459;-78
2022/01/06 03:59:25;;;;;;;15.38;2.25;;;;;;;-141.50;100.00;63355.56;5074727;28;20109;-77
2022/01/06 04:01:52;;;;;;;14.45;2.22;;;;;;;-141.50;100.00;63355.56;5076071;28;20504;-77
2022/01/06 04:04:19;;;;;;;17.85;2.30;;;;;;;-141.50;100.00;63355.56;5085188;28;20144;-78
2022/01/06 04:06:45;;;;;;;14.88;2.15;;;;;;;-141.50;100.00;63355.56;5087991;28;20075;-77
2022/01/06 04:09:12;;;;;;;16.20;1.90;;;;;;;-141.50;100.00;63355.56;5087260;28;20040;-77
2022/01/06 04:11:38;;;;;;;13.43;1.63;;;;;;;-141.50;100.00;63355.56;5085060;28;20204;-78
2022/01/06 04:14:05;;;;;;;16.60;2.13;;;;;;;-141.50;100.00;63355.56;5072353;28;20110;-78
2022/01/06 04:16:38;;;;;;;16.20;2.10;;;;;;;-141.50;100.00;63355.56;5072601;28;20091;-78
2022/01/06 04:19:05;;;;;;;18.92;2.17;;;;;;;-141.50;100.00;63355.56;5068239;28;20052;-78
2022/01/06 04:21:32;;;;;;;15.95;1.88;;;;;;;-141.50;100.00;63355.56;5069818;28;20581;-77
2022/01/06 04:23:59;;;;;;;16.17;1.95;;;;;;;-141.50;100.00;63355.56;5070968;28;20485;-78
2022/01/06 04:26:26;;;;;;;14.43;1.90;;;;;;;-141.50;100.00;63355.56;5073594;28;20158;-77
2022/01/06 04:28:53;;;;;;;15.60;2.28;;;;;;;-141.50;100.00;63355.56;5069876;28;20103;-77
2022/01/06 04:31:19;;;;;;;18.88;2.72;;;;;;;-141.50;100.00;63355.56;5070779;28;20048;-77
2022/01/06 04:33:46;;;;;;;16.95;1.85;;;;;;;-141.50;100.00;63355.56;5071040;28;20056;-79
2022/01/06 04:36:12;;;;;;;19.77;2.53;;;;;;;-141.50;100.00;63355.56;5074143;28;20044;-79
2022/01/06 04:38:39;;;;;;;20.13;1.92;;;;;;;-141.50;100.00;63355.56;5077967;28;20422;-79
2022/01/06 04:41:06;;;;;;;15.15;1.40;;;;;;;-141.50;100.00;63355.56;5076411;28;20191;-81
2022/01/06 04:43:33;;;;;;;5.30;0.60;;;;;;;-141.50;100.00;63355.56;5076547;28;20045;-79
2022/01/06 04:46:00;;;;;;;1.45;0.30;;;;;;;-141.50;100.00;63355.56;5077636;28;20102;-81
2022/01/06 04:48:26;;;;;;;1.70;0.50;;;;;;;-141.50;100.00;63355.56;5072667;28;20044;-79
2022/01/06 04:50:53;;;;;;;3.00;0.65;;;;;;;-141.50;100.00;63355.56;5072665;28;20109;-80
2022/01/06 04:53:19;;;;;;;1.20;0.63;;;;;;;-141.50;100.00;63355.56;5071499;28;20094;-80
2022/01/06 04:55:46;;;;;;;2.25;0.60;;;;;;;-141.50;100.00;63355.56;5073213;28;20485;-81
2022/01/06 04:58:13;;;;;;;5.28;0.90;;;;;;;-141.50;100.00;63355.56;5071705;28;20052;-81
2022/01/06 05:00:39;;;;;;;2.22;0.90;;;;;;;-141.50;100.00;63355.56;5072292;28;20079;-80
2022/01/06 05:03:06;;;;;;;1.90;1.02;;;;;;;-141.50;100.00;63355.56;5070655;28;20472;-80
2022/01/06 05:05:33;;;;;;;4.25;1.30;;;;;;;-141.50;100.00;63355.56;5073420;28;20126;-79
2022/01/06 05:08:00;;;;;;;4.03;1.67;;;;;;;-141.50;100.00;63355.56;5069580;28;20106;-80
2022/01/06 05:10:27;;;;;;;6.25;2.58;;;;;;;-141.50;100.00;63355.56;5070718;28;20298;-79
2022/01/06 05:12:53;;;;;;;6.40;2.47;;;;;;;-141.50;100.00;63355.56;5070613;28;20106;-80
2022/01/06 05:15:20;;;;;;;9.15;3.10;;;;;;;-141.50;100.00;63355.56;5070660;28;20518;-79
2022/01/06 05:17:46;;;;;;;13.73;4.20;;;;;;;-141.50;100.00;63355.56;5071689;28;20048;-79
2022/01/06 05:20:13;;;;;;;12.52;4.07;;;;;;;-141.50;100.00;63355.56;5069767;28;20424;-77
2022/01/06 05:22:44;;;;;;;9.00;4.35;;;;;;;-141.50;100.00;63355.56;5069929;28;20048;-77
2022/01/06 05:25:12;;;;;;;9.95;4.20;;;;;;;-141.50;100.00;63355.56;5069881;28;20485;-78
2022/01/06 05:27:39;;;;;;;13.07;5.40;;;;;;;-141.50;100.00;63355.56;5069967;28;20154;-77
2022/01/06 05:30:06;;;;;;;11.77;4.15;;;;;;;-141.50;100.00;63355.56;5072808;28;20485;-81
2022/01/06 05:32:33;;;;;;;15.93;4.72;;;;;;;-141.50;100.00;63355.56;5072230;28;20086;-80
2022/01/06 05:35:00;;;;;;;10.23;4.07;;;;;;;-141.50;100.00;63355.56;5074372;28;20420;-79
2022/01/06 05:37:26;;;;;;;8.00;4.15;;;;;;;-141.50;100.00;63355.56;5092040;28;20052;-79
2022/01/06 05:39:53;;;;;;;11.02;4.03;;;;;;;-141.50;100.00;63355.56;5097672;28;20523;-81
2022/01/06 05:42:19;;;;;;;13.82;4.00;;;;;;;-141.50;100.00;63355.56;5100743;28;20048;-80
2022/01/06 05:44:46;;;;;;;10.85;4.07;;;;;;;-141.50;100.00;63355.56;5104252;28;20048;-79
2022/01/06 05:47:12;;;;;;;10.23;3.72;;;;;;;-141.50;100.00;63355.56;5109162;28;20043;-79
2022/01/06 05:49:39;;;;;;;9.63;3.70;;;;;;;-141.50;100.00;63355.56;5106319;28;20103;-82
2022/01/06 05:52:05;;;;;;;9.10;3.60;;;;;;;-141.50;100.00;63355.56;5082119;28;20190;-80
2022/01/06 05:54:32;;;;;;;16.90;4.18;;;;;;;-141.50;100.00;63355.56;5078353;28;20055;-82
2022/01/06 05:56:59;;;;;;;8.32;3.28;;;;;;;-141.50;100.00;63355.56;5079220;28;20053;-81
2022/01/06 05:59:28;;;;;;;16.63;3.70;;;;;;;-141.50;100.00;63355.56;5077581;28;20056;-81
2022/01/06 06:01:55;;;;;;;14.48;3.80;;;;;;;-141.50;100.00;63355.56;5076901;28;20048;-80
2022/01/06 06:04:21;;;;;;;13.63;3.47;;;;;;;-141.50;100.00;63355.56;5080822;28;20104;-81
2022/01/06 06:06:48;;;;;;;8.40;2.75;;;;;;;-141.50;100.00;63355.56;5074253;28;20059;-81
2022/01/06 06:09:15;;;;;;;10.35;3.13;;;;;;;-141.50;100.00;63355.56;5075579;28;20049;-80
2022/01/06 06:11:41;;;;;;;8.63;2.30;;;;;;;-141.50;100.00;63355.56;5075423;28;20052;-79
2022/01/06 06:14:08;;;;;;;9.90;2.33;;;;;;;-141.50;100.00;63355.56;5078268;28;20102;-79
2022/01/06 06:16:35;;;;;;;8.63;2.40;;;;;;;-141.50;100.00;63355.56;5109342;28;20412;-78
2022/01/06 06:19:01;;;;;;;10.38;2.75;;;;;;;-141.50;100.00;63355.56;5118087;28;20056;-79
2022/01/06 06:21:28;;;;;;;9.18;2.60;;;;;;;-141.50;100.00;63355.56;5119152;28;20077;-78
2022/01/06 06:23:54;;;;;;;14.52;2.58;;;;;;;-141.50;100.00;63355.56;5119622;28;20059;-78
2022/01/06 06:26:21;;;;;;;7.88;2.40;;;;;;;-141.50;100.00;63355.56;5122094;28;20040;-79
2022/01/06 06:28:48;;;;;;;9.68;2.65;;;;;;;-141.50;100.00;63355.56;5117655;28;20056;-80
2022/01/06 06:31:14;;;;;;;11.27;2.95;;;;;;;-141.50;100.00;63355.56;5115330;28;20051;-79
2022/01/06 06:33:41;;;;;;;9.52;3.13;;;;;;;-141.50;100.00;63355.56;5099111;28;20204;-79
2022/01/06 06:36:07;;;;;;;7.47;2.47;;;;;;;-141.50;100.00;63355.56;5084974;28;20048;-80
2022/01/06 06:38:34;;;;;;;11.98;3.08;;;;;;;-141.50;100.00;63355.56;5093899;28;20063;-80
2022/01/06 06:41:00;;;;;;;10.48;2.53;;;;;;;-141.50;100.00;63355.56;5094639;28;20055;-80
2022/01/06 06:43:27;;;;;;;9.38;2.70;;;;;;;-141.50;100.00;63355.56;5091223;28;20044;-80
2022/01/06 06:45:54;;;;;;;6.95;2.28;;;;;;;-141.50;100.00;63355.56;5091387;28;20040;-80
2022/01/06 06:48:22;;;;;;;13.65;2.35;;;;;;;-141.50;100.00;63355.56;5093290;28;20056;-80
2022/01/06 06:50:48;;;;;;;12.00;2.63;;;;;;;-141.50;100.00;63355.56;5094816;28;20048;-79
2022/01/06 06:53:15;;;;;;;6.75;2.08;;;;;;;-141.50;100.00;63355.56;5094009;28;20052;-80
2022/01/06 06:55:41;;;;;;;5.80;2.08;;;;;;;-141.50;100.00;63355.56;5091627;28;20530;-80
2022/01/06 06:58:08;;;;;;;10.55;2.00;;;;;;;-141.50;100.00;63355.56;5092013;28;20047;-78
2022/01/06 07:00:34;;;;;;;11.10;1.85;;;;;;;-141.50;100.00;63355.56;5091480;28;20474;-80
2022/01/06 07:03:01;;;;;;;6.10;2.00;;;;;;;-141.50;100.00;63355.56;5090881;28;20052;-78
2022/01/06 07:05:29;;;;;;;9.93;1.83;;;;;;;-141.50;100.00;63355.56;5092353;28;20596;-80
2022/01/06 07:07:55;;;;;;;12.13;1.90;;;;;;;-141.50;100.00;63355.56;5091884;28;20056;-81
2022/01/06 07:10:22;;;;;;;13.48;2.50;;;;;;;-141.50;100.00;63355.56;5092322;28;20454;-78
2022/01/06 07:12:48;;;;;;;13.00;2.15;;;;;;;-141.50;100.00;63355.56;5091531;28;20542;-81
2022/01/06 07:15:15;;;;;;;19.80;2.88;;;;;;;-141.50;100.00;63355.56;5092160;28;20093;-79
2022/01/06 07:17:42;;;;;;;11.18;2.33;;;;;;;-141.50;100.00;63355.56;5091215;28;20048;-80
2022/01/06 07:20:09;;;;;;;15.38;2.88;;;;;;;-141.50;100.00;63355.56;5093788;28;20086;-80
2022/01/06 07:22:36;;;;;;;15.90;3.78;;;;;;;-141.50;100.00;63355.56;5093843;28;20075;-77
2022/01/06 07:25:04;;;;;;;10.73;2.70;;;;;;;-141.50;100.00;63355.56;5096621;28;20407;-80
2022/01/06 07:27:30;;;;;;;11.25;2.17;;;;;;;-141.50;100.00;63355.56;5096057;28;20052;-80
2022/01/06 07:29:57;;;;;;;9.32;2.63;;;;;;;-141.50;100.00;63355.56;5093574;28;20086;-80
2022/01/06 07:32:24;;;;;;;9.25;2.30;;;;;;;-141.50;100.00;63355.56;5092232;28;20524;-80
2022/01/06 07:34:55;;;;;;;10.90;3.22;;;;;;;-141.50;100.00;63355.56;5091516;28;20049;-80
2022/01/06 07:37:22;;;;;;;9.95;3.10;;;;;;;-141.50;100.00;63355.56;5114341;28;20377;-80
2022/01/06 07:39:48;;;;;;;13.48;3.25;;;;;;;-141.50;100.00;63355.56;5110395;28;20549;-80
2022/01/06 07:42:14;;;;;;;19.35;3.03;;;;;;;-141.50;100.00;63355.56;5093114;28;20148;-80
2022/01/06 07:44:42;;;;;;;13.88;3.03;;;;;;;-141.50;100.00;63355.56;5071884;28;20045;-79
2022/01/06 07:47:09;;;;;;;10.95;2.70;;;;;;;-141.50;100.00;63355.56;5071285;28;20083;-79
2022/01/06 07:49:35;;;;;;;12.57;3.00;;;;;;;-141.50;100.00;63355.56;5072901;28;20052;-80
2022/01/06 07:52:03;;;;;;;9.13;3.03;;;;;;;-141.50;100.00;63355.56;5078382;28;20056;-78
2022/01/06 07:54:29;;;;;;;13.63;2.60;;;;;;;-141.50;100.00;63355.56;5087142;28;20089;-81
2022/01/06 07:56:55;;;;;;;10.95;2.63;;;;;;;-141.50;100.00;63355.56;5094816;28;20083;-80
2022/01/06 07:59:22;;;;;;;17.30;3.10;;;;;;;-141.50;100.00;63355.56;5094141;28;20063;-81
2022/01/06 08:01:48;;;;;;;11.45;2.90;;;;;;;-141.50;100.00;63355.56;5088473;28;20074;-78
2022/01/06 08:04:15;;;;;;;13.00;3.47;;;;;;;-141.50;100.00;63355.56;5078888;28;20059;-80
2022/01/06 08:06:42;;;;;;;15.57;2.97;;;;;;;-141.50;100.00;63355.56;5093166;28;20580;-79
2022/01/06 08:09:08;;;;;;;10.30;2.72;;;;;;;-141.50;100.00;63355.56;5088129;28;20446;-79
2022/01/06 08:11:35;;;;;;;10.38;2.67;;;;;;;-141.50;100.00;63355.56;5092016;28;20063;-80
2022/01/06 08:14:01;;;;;;;18.63;2.85;;;;;;;-141.50;100.00;63355.56;5093376;28;20105;-79
2022/01/06 08:16:28;;;;;;;20.73;2.72;;;;;;;-141.50;100.00;63355.56;5092551;28;20096;-80
2022/01/06 08:18:54;;;;;;;11.27;2.85;;;;;;;-141.50;100.00;63355.56;5091591;28;20054;-79
2022/01/06 08:21:21;;;;;;;11.13;2.83;;;;;;;-141.50;100.00;63355.56;5092089;28;20487;-78
2022/01/06 08:23:47;;;;;;;13.35;3.28;;;;;;;-141.50;100.00;63355.56;5092652;28;20105;-80
2022/01/06 08:26:15;;;;;;;12.93;3.10;;;;;;;-141.50;100.00;63355.56;5091297;28;20403;-80
2022/01/06 08:28:46;;;;;;;16.73;3.25;;;;;;;-141.50;100.00;63355.56;5086927;28;20432;-80
2022/01/06 08:31:15;;;;;;;16.02;3.20;;;;;;;-141.50;100.00;63355.56;5075404;28;20058;-80
2022/01/06 08:33:41;;;;;;;15.15;2.95;;;;;;;-141.50;100.00;63355.56;5076414;28;20090;-80
2022/01/06 08:36:08;;;;;;;11.90;2.38;;;;;;;-141.50;100.00;63355.56;5081180;28;20074;-80
2022/01/06 08:38:35;;;;;;;8.05;3.00;;;;;;;-141.50;100.00;63355.56;5074585;28;20562;-81
2022/01/06 08:41:01;;;;;;;13.55;2.30;;;;;;;-141.50;100.00;63355.56;5073431;28;20056;-81
2022/01/06 08:43:28;;;;;;;13.65;3.70;;;;;;;-141.50;100.00;63355.56;5086894;28;20113;-81
2022/01/06 08:45:56;;;;;;;14.98;3.92;;;;;;;-141.50;100.00;63355.56;5091110;28;20106;-79
2022/01/06 08:48:24;;;;;;;12.82;3.30;;;;;;;-141.50;100.00;63355.56;5092865;28;20412;-81
2022/01/06 08:50:52;;;;;;;8.60;2.35;;;;;;;-141.50;100.00;63355.56;5092101;28;20549;-79
2022/01/06 08:53:22;;;;;;;7.38;2.30;;;;;;;-141.50;100.00;63355.56;5093227;28;20062;-80
2022/01/06 08:55:49;;;;;;;10.02;2.03;;;;;;;-141.50;100.00;63355.56;5094313;28;20048;-79
2022/01/06 08:58:16;;;;;;;8.85;2.08;;;;;;;-141.50;100.00;63355.56;5093649;28;20058;-79
2022/01/06 09:00:44;;;;;;;7.38;1.98;;;;;;;-141.50;100.00;63355.56;5093554;28;20048;-80
2022/01/06 09:03:11;;;;;;;9.10;2.30;;;;;;;-141.50;100.00;63355.56;5104898;28;20058;-80
2022/01/06 09:05:38;;;;;;;7.50;2.40;;;;;;;-141.50;100.00;63355.56;5103529;28;20036;-79
2022/01/06 09:08:05;;;;;;;13.18;2.28;;;;;;;-141.50;100.00;63355.56;5097000;28;20047;-80
2022/01/06 09:10:37;;;;;;;8.63;2.08;;;;;;;-141.50;100.00;63355.56;5094837;28;20151;-81
2022/01/06 09:13:24;;;;;;;12.20;2.25;;;;;;;-141.50;100.00;63355.56;5078080;28;20314;-80
2022/01/06 09:15:50;;;;;;;8.93;2.88;;;;;;;-141.50;100.00;63355.56;5077037;28;20045;-81
2022/01/06 09:18:17;;;;;;;10.70;2.45;;;;;;;-141.50;100.00;63355.56;5084836;28;20056;-80
2022/01/06 09:20:43;;;;;;;11.40;4.15;;;;;;;-141.50;100.00;63355.56;5096894;28;20052;-80
2022/01/06 09:23:10;;;;;;;11.07;2.90;;;;;;;-141.50;100.00;63355.56;5094444;28;20056;-81
2022/01/06 09:25:36;;;;;;;14.82;3.05;;;;;;;-141.50;100.00;63355.56;5096552;28;20044;-81
2022/01/06 09:28:03;;;;;;;14.75;3.30;;;;;;;-141.50;100.00;63355.56;5096631;28;20074;-82
2022/01/06 09:30:29;;;;;;;14.18;2.85;;;;;;;-141.50;100.00;63355.56;5093614;28;20531;-81
2022/01/06 09:32:56;;;;;;;15.25;3.17;;;;;;;-141.50;100.00;63355.56;5093660;28;20561;-81
2022/01/06 09:35:23;;;;;;;8.23;2.83;;;;;;;-141.50;100.00;63355.56;5095876;28;20438;-81
2022/01/06 09:37:51;;;;;;;8.35;3.20;;;;;;;-141.50;100.00;63355.56;5095328;28;20056;-79
2022/01/06 09:40:18;;;;;;;7.45;3.00;;;;;;;-141.50;100.00;63355.56;5095434;28;20104;-79
2022/01/06 09:42:44;;;;;;;9.15;2.83;;;;;;;-141.50;100.00;63355.56;5094654;28;20048;-79
2022/01/06 09:45:11;;;;;;;13.00;2.83;;;;;;;-141.50;100.00;63355.56;5095855;28;20168;-81
2022/01/06 09:47:38;;;;;;;11.90;3.00;;;;;;;-141.50;100.00;63355.56;5094910;28;20485;-81
2022/01/06 09:50:08;;;;;;;10.93;2.45;;;;;;;-141.50;100.00;63355.56;5094725;28;20055;-82
2022/01/06 09:52:36;;;;;;;11.88;2.42;;;;;;;-141.50;100.00;63355.56;5095728;28;20052;-79
2022/01/06 09:55:04;;;;;;;14.02;3.30;;;;;;;-141.50;100.00;63355.56;5096560;28;20047;-80
2022/01/06 09:57:31;;;;;;;11.43;3.30;;;;;;;-141.50;100.00;63355.56;5095494;28;20210;-80
2022/01/06 09:59:58;;;;;;;11.90;2.58;;;;;;;-141.50;100.00;63355.56;5093157;28;20048;-80
2022/01/06 10:02:36;;;;;;;8.68;2.65;;;;;;;-141.50;100.00;63355.56;5093219;28;20508;-80
2022/01/06 10:05:04;;;;;;;8.98;2.55;;;;;;;-141.50;100.00;63355.56;5108401;28;20117;-78
2022/01/06 10:07:36;;;;;;;6.47;2.15;;;;;;;-141.50;100.00;63355.56;5107406;28;20052;-78
2022/01/06 10:10:09;;;;;;;6.45;2.55;;;;;;;-141.50;100.00;63355.56;5106614;28;20354;-79
2022/01/06 10:12:39;;;;;;;9.30;2.10;;;;;;;-141.50;100.00;63355.56;5100890;28;20058;-80
2022/01/06 10:15:20;;;;;;;8.13;1.90;;;;;;;-141.50;100.00;63355.56;5096584;28;20134;-80
2022/01/06 10:17:48;;;;;;;12.45;2.33;;;;;;;-141.50;100.00;63355.56;5095694;28;20052;-81
2022/01/06 10:20:17;;;;;;;12.35;3.00;;;;;;;-141.50;100.00;63355.56;5094543;28;20040;-79
2022/01/06 10:22:53;;;;;;;7.57;2.58;;;;;;;-141.50;100.00;63355.56;5094801;28;20043;-81
2022/01/06 10:25:28;;;;;;;10.63;2.72;;;;;;;-141.50;100.00;63355.56;5100315;28;20044;-78
2022/01/06 10:28:23;;;;;;;8.15;3.03;;;;;;;-141.50;100.00;63355.56;5102487;28;20120;-78
2022/01/06 10:30:50;;;;;;;10.18;3.35;;;;;;;-141.50;100.00;63355.56;5105351;28;20082;-81
2022/01/06 10:33:19;;;;;;;10.05;2.28;;;;;;;-141.50;100.00;63355.56;5099575;28;20658;-82
2022/01/06 10:35:46;;;;;;;6.15;2.05;;;;;;;-141.50;100.00;63355.56;5096894;28;20044;-81
2022/01/06 10:38:13;;;;;;;5.22;1.83;;;;;;;-141.50;100.00;63355.56;5095526;28;20273;-80
2022/01/06 10:40:39;;;;;;;8.93;2.20;;;;;;;-141.50;100.00;63355.56;5097684;28;20083;-81
2022/01/06 10:43:32;;;;;;;7.63;2.70;;;;;;;-141.50;100.00;63355.56;5098985;28;20052;-81
2022/01/06 10:46:02;;;;;;;10.27;2.97;;;;;;;-141.50;100.00;63355.56;5104369;28;20313;-80
2022/01/06 10:48:29;;;;;;;7.82;2.22;;;;;;;-141.50;100.00;63355.56;5103887;28;20048;-80
2022/01/06 10:50:57;;;;;;;7.68;2.10;;;;;;;-141.50;100.00;63355.56;5098229;28;20097;-80
2022/01/06 10:53:24;;;;;;;6.15;2.38;;;;;;;-141.50;100.00;63355.56;5096679;28;20055;-80
2022/01/06 10:55:50;;;;;;;5.65;2.50;;;;;;;-141.50;100.00;63355.56;5101782;28;20070;-80
2022/01/06 10:58:20;;;;;;;10.40;2.55;;;;;;;-141.50;100.00;63355.56;5095796;28;20484;-80
2022/01/06 11:00:52;;;;;;;8.48;2.28;;;;;;;-141.50;100.00;63355.56;5090255;28;20565;-81
2022/01/06 11:03:21;;;;;;;8.60;2.85;;;;;;;-141.50;100.00;63355.56;5096173;28;20166;-79
2022/01/06 11:05:51;;;;;;;13.02;2.90;;;;;;;-141.50;100.00;63355.56;5098239;28;20466;-80
2022/01/06 11:08:21;;;;;;;8.30;3.13;;;;;;;-141.50;100.00;63355.56;5097021;28;20101;-81
2022/01/06 11:11:13;;;;;;;7.65;2.22;;;;;;;-141.50;100.00;63355.56;5098834;28;20464;-81
2022/01/06 11:13:37;;;;;;;9.00;2.40;;;;;;;-141.50;100.00;63355.56;5097701;28;20072;-81
2022/01/06 11:16:05;;;;;;;12.90;2.33;;;;;;;-141.50;100.00;63355.56;5097667;28;20048;-80